Westwood Rainier — C6SI3 — position and weather

sailwx.info

Track history (hours):
 
Tides and Currents Weather Stations Pressure Air Temp Water Temp Dewpoint Dewpoint Depression Visibility Wind Speed Wind Dir Waves Ship Positions

Westwood Rainier

Last reported at 2016-Apr-28 18:00 UTC. Time now 2016-Apr-29 19:46 UTC.
Position N 51°06' W 134°06'.

Type: Cargo ship. MMSI: 311348993.

Wind from 270 at 30 knots

Waves 3.0 meters (10 feet), 8 second period

Barometer 1013.6 mb
Air temperature 10.0 ° C
Visibility: greater than 10.8 NM
Dewpoint 5.7 ° C
Water temperature 8.0 ° C

Date/timePositionNaut miles runAvg speedWind from/ knotsBaromVisibWave heightAir tempDewpointWater temp
2016-Apr-28 18:00N 51°06' W 134°06'31512.9 270 / 301013.610.8 3.010.0 5.7 8.0
2016-Apr-27 17:32N 48°54' W 126°42'1414.7
2016-Apr-27 16:34N 48°47' W 126°23'1514.8
2016-Apr-27 15:34N 48°39' W 126°03'1515.2
2016-Apr-27 14:33N 48°32' W 125°43'1514.6
2016-Apr-27 13:33N 48°31' W 125°22'4714.8
2016-Apr-27 10:22N 48°22' W 124°12'1215.3
2016-Apr-27 09:33N 48°17' W 123°55'1615.8
2016-Apr-27 08:33N 48°15' W 123°31'1211.8
2016-Apr-27 07:33N 48°23' W 123°18'1313.3
2016-Apr-27 06:33N 48°36' W 123°14'1313.3
2016-Apr-27 05:34N 48°47' W 123°02'1413.9
2016-Apr-27 04:33N 48°58' W 123°15'1312.8
2016-Apr-27 03:34N 49°10' W 123°23'1312.5
2016-Apr-27 02:33N 49°19' W 123°10'3 3.2
2016-Apr-27 01:32N 49°17' W 123°06'0 0.0
2016-Apr-27 00:32N 49°17' W 123°06'0 0.0
2016-Apr-26 23:32N 49°17' W 123°06'0 0.0
2016-Apr-26 22:32N 49°17' W 123°06'0 0.0
2016-Apr-26 21:32N 49°17' W 123°06'0 0.0
2016-Apr-26 20:32N 49°17' W 123°06'0 0.0
2016-Apr-26 19:32N 49°17' W 123°06'0 0.0
2016-Apr-26 18:29N 49°17' W 123°06'0 0.0
2016-Apr-26 17:32N 49°17' W 123°06'0 0.0
2016-Apr-26 16:32N 49°17' W 123°06'0 0.0
2016-Apr-26 15:32N 49°17' W 123°06'0 0.0
2016-Apr-26 14:32N 49°17' W 123°06'0 0.0
2016-Apr-26 13:32N 49°17' W 123°06'0 0.0
2016-Apr-26 12:32N 49°17' W 123°06'0 0.0
2016-Apr-26 11:32N 49°17' W 123°06'0 0.0
2016-Apr-26 10:32N 49°17' W 123°06'0 0.0
2016-Apr-26 09:32N 49°17' W 123°06'0 0.0
2016-Apr-26 08:32N 49°17' W 123°06'0 0.0
2016-Apr-26 07:32N 49°17' W 123°06'0 0.0
2016-Apr-26 06:32N 49°17' W 123°06'3 2.8
2016-Apr-26 05:33N 49°19' W 123°09'1111.5
2016-Apr-26 04:33N 49°10' W 123°20'1514.6
2016-Apr-26 03:33N 48°57' W 123°10'1212.5
2016-Apr-26 02:33N 48°45' W 123°05'1313.3
2016-Apr-26 01:33N 48°32' W 123°11'1313.5
2016-Apr-26 00:33N 48°21' W 123°23'1412.6
2016-Apr-25 23:25N 48°13' W 123°42'91 9.2
2016-Apr-25 13:29N 47°02' W 125°05'1213.2
2016-Apr-25 12:34N 46°50' W 125°02'1312.7
2016-Apr-25 11:33N 46°41' W 124°50'1313.1
2016-Apr-25 10:34N 46°31' W 124°36'1413.8
2016-Apr-25 09:34N 46°21' W 124°23'1212.2
2016-Apr-25 08:34N 46°13' W 124°09'10 9.7
2016-Apr-25 07:34N 46°12' W 123°55'1010.2
2016-Apr-25 06:34N 46°15' W 123°41'1111.2
2016-Apr-25 05:33N 46°12' W 123°26'1111.3
2016-Apr-25 04:33N 46°11' W 123°09'1313.3
2016-Apr-25 03:33N 46°04' W 122°53'1312.8
2016-Apr-25 02:33N 45°52' W 122°47'1313.0
2016-Apr-25 01:34N 45°39' W 122°46'1 1.0
2016-Apr-25 00:32N 45°38' W 122°45'0 0.0
2016-Apr-24 23:32N 45°38' W 122°45'0 0.0
2016-Apr-24 22:32N 45°38' W 122°45'0 0.0
2016-Apr-24 21:32N 45°38' W 122°45'0 0.0
2016-Apr-24 20:32N 45°38' W 122°45'0 0.0
2016-Apr-24 19:32N 45°38' W 122°45'0 0.0
2016-Apr-24 18:33N 45°38' W 122°45'0 0.0
2016-Apr-24 17:32N 45°38' W 122°45'0 0.0
2016-Apr-24 16:32N 45°38' W 122°45'0 0.0
2016-Apr-24 15:20N 45°38' W 122°45'0 0.0
2016-Apr-24 14:32N 45°38' W 122°45'0 0.0
2016-Apr-24 13:32N 45°38' W 122°45'6 5.9
2016-Apr-24 12:33N 45°44' W 122°46'1111.4
2016-Apr-24 11:33N 45°55' W 122°48'1111.0
2016-Apr-24 10:33N 46°05' W 122°55'4 3.5
2016-Apr-24 09:32N 46°08' W 122°59'0 0.0
2016-Apr-24 08:32N 46°08' W 122°59'0 0.0
2016-Apr-24 07:29N 46°08' W 122°59'0 0.0
2016-Apr-24 06:32N 46°08' W 122°59'0 0.0
2016-Apr-24 05:32N 46°08' W 122°59'0 0.0
2016-Apr-24 04:32N 46°08' W 122°59'0 0.0
2016-Apr-24 03:32N 46°08' W 122°59'0 0.0
2016-Apr-24 02:32N 46°08' W 122°59'0 0.0
2016-Apr-24 01:32N 46°08' W 122°59'0 0.0
2016-Apr-24 00:32N 46°08' W 122°59'0 0.0
2016-Apr-23 23:29N 46°08' W 122°59'0 0.0
2016-Apr-23 22:32N 46°08' W 122°59'0 0.0
2016-Apr-23 21:32N 46°08' W 122°59'0 0.0
2016-Apr-23 20:32N 46°08' W 122°59'0 0.0
2016-Apr-23 19:32N 46°08' W 122°59'0 0.0
2016-Apr-23 18:26N 46°08' W 122°59'0 0.0
2016-Apr-23 17:29N 46°08' W 122°59'0 0.0
2016-Apr-23 16:29N 46°08' W 122°59'0 0.0
2016-Apr-23 15:32N 46°08' W 122°59'0 0.0
2016-Apr-23 14:32N 46°08' W 122°59'0 0.0
2016-Apr-23 13:32N 46°08' W 122°59'0 0.0
2016-Apr-23 12:26N 46°08' W 122°59'0 0.0
2016-Apr-23 11:32N 46°08' W 122°59'0 0.0
2016-Apr-23 10:32N 46°08' W 122°59'0 0.0
2016-Apr-23 09:32N 46°08' W 122°59'0 0.0
2016-Apr-23 08:32N 46°08' W 122°59'0 0.0
2016-Apr-23 07:32N 46°08' W 122°59'0 0.0
2016-Apr-23 06:29N 46°08' W 122°59'0 0.0
2016-Apr-23 05:32N 46°08' W 122°59'0 0.0
2016-Apr-23 04:32N 46°08' W 122°59'0 0.0
2016-Apr-23 03:26N 46°08' W 122°59'0 0.0
2016-Apr-23 02:33N 46°08' W 122°59'0 0.0
2016-Apr-23 01:33N 46°08' W 122°59'0 0.0
2016-Apr-23 00:33N 46°08' W 122°59'0 0.0
2016-Apr-22 23:33N 46°08' W 122°59'0 0.0
2016-Apr-22 22:33N 46°08' W 122°59'0 0.0
2016-Apr-22 21:33N 46°08' W 122°59'0 0.0
2016-Apr-22 20:33N 46°08' W 122°59'0 0.0
2016-Apr-22 19:33N 46°08' W 122°59'0 0.0
2016-Apr-22 18:33N 46°08' W 122°59'0 0.0
2016-Apr-22 17:33N 46°08' W 122°59'0 0.0
2016-Apr-22 16:30N 46°08' W 122°59'0 0.0
2016-Apr-22 15:33N 46°08' W 122°59'0 0.0
2016-Apr-22 14:33N 46°08' W 122°59'0 0.0
2016-Apr-22 13:33N 46°08' W 122°59'0 0.0
2016-Apr-22 12:27N 46°08' W 122°59'0 0.0
2016-Apr-22 11:33N 46°08' W 122°59'0 0.0
2016-Apr-22 10:33N 46°08' W 122°59'0 0.0
2016-Apr-22 09:33N 46°08' W 122°59'0 0.0
2016-Apr-22 08:33N 46°08' W 122°59'0 0.0
2016-Apr-22 07:33N 46°08' W 122°59'0 0.0
2016-Apr-22 06:33N 46°08' W 122°59'0 0.0
2016-Apr-22 05:33N 46°08' W 122°59'0 0.0
2016-Apr-22 04:33N 46°08' W 122°59'0 0.0
2016-Apr-22 03:33N 46°08' W 122°59'0 0.0
2016-Apr-22 02:33N 46°08' W 122°59'0 0.0
2016-Apr-22 01:33N 46°08' W 122°59'0 0.0
2016-Apr-22 00:33N 46°08' W 122°59'0 0.0
2016-Apr-21 23:33N 46°08' W 122°59'0 0.0
2016-Apr-21 22:33N 46°08' W 122°59'0 0.0
2016-Apr-21 21:33N 46°08' W 122°59'0 0.0
2016-Apr-21 20:33N 46°08' W 122°59'0 0.0
2016-Apr-21 19:27N 46°08' W 122°59'0 0.0
2016-Apr-21 18:33N 46°08' W 122°59'0 0.0
2016-Apr-21 17:33N 46°08' W 122°59'0 0.0
2016-Apr-21 16:30N 46°08' W 122°59'0 0.0
2016-Apr-21 15:33N 46°08' W 122°59'0 0.0
2016-Apr-21 14:33N 46°08' W 122°59'0 0.0
2016-Apr-21 13:33N 46°08' W 122°59'0 0.0
2016-Apr-21 12:33N 46°08' W 122°59'0 0.0
2016-Apr-21 11:33N 46°08' W 122°59'0 0.0
2016-Apr-21 10:33N 46°08' W 122°59'0 0.0
2016-Apr-21 09:33N 46°08' W 122°59'0 0.0
2016-Apr-21 08:33N 46°08' W 122°59'0 0.0
2016-Apr-21 07:33N 46°08' W 122°59'0 0.0
2016-Apr-21 06:33N 46°08' W 122°59'0 0.0
2016-Apr-21 05:33N 46°08' W 122°59'0 0.0
2016-Apr-21 04:33N 46°08' W 122°59'0 0.0
2016-Apr-21 03:33N 46°08' W 122°59'0 0.0
2016-Apr-21 02:18N 46°08' W 122°59'0 0.0
2016-Apr-21 01:33N 46°08' W 122°59'0 0.0
2016-Apr-21 00:33N 46°08' W 122°59'0 0.0
2016-Apr-20 23:30N 46°08' W 122°59'0 0.0
2016-Apr-20 22:30N 46°08' W 122°59'0 0.0
2016-Apr-20 21:33N 46°08' W 122°59'0 0.0
2016-Apr-20 20:21N 46°08' W 122°59'0 0.0
2016-Apr-20 19:24N 46°08' W 122°59'0 0.0
2016-Apr-20 18:28N 46°08' W 122°59'0 0.0
2016-Apr-20 17:28N 46°08' W 122°59'0 0.0
2016-Apr-20 16:31N 46°08' W 122°59'0 0.0
2016-Apr-20 15:31N 46°08' W 122°59'0 0.0
2016-Apr-20 14:28N 46°08' W 122°59'0 0.0
2016-Apr-20 13:25N 46°08' W 122°59'0 0.0
2016-Apr-20 12:31N 46°08' W 122°59'0 0.0
2016-Apr-20 11:31N 46°08' W 122°59'1 1.4
2016-Apr-20 10:33N 46°08' W 123°01'1110.6
2016-Apr-20 09:33N 46°09' W 123°16'1010.1
2016-Apr-20 08:34N 46°16' W 123°27'1413.6
2016-Apr-20 07:34N 46°13' W 123°46'1212.0
2016-Apr-20 06:34N 46°15' W 124°03'8 7.8
2016-Apr-20 05:33N 46°12' W 124°14'1111.3
2016-Apr-20 04:33N 46°22' W 124°23'1413.8
2016-Apr-20 03:34N 46°31' W 124°37'1514.8
2016-Apr-20 02:33N 46°43' W 124°51'1414.2
2016-Apr-20 01:34N 46°55' W 125°02'1414.2
2016-Apr-20 00:33N 47°09' W 125°05'1111.2
2016-Apr-19 23:34N 47°20' W 125°08'1414.3
2016-Apr-19 22:34N 47°34' W 125°12'1514.8
2016-Apr-19 21:34N 47°48' W 125°16'1414.2
2016-Apr-19 20:33N 48°03' W 125°15'1414.4
2016-Apr-19 19:34N 48°17' W 125°12'1413.5
2016-Apr-19 18:32N 48°29' W 125°03'4414.9
2016-Apr-19 15:33N 48°18' W 123°58'1716.6
2016-Apr-19 14:33N 48°15' W 123°34'1312.5
2016-Apr-19 13:33N 48°23' W 123°19'1413.9
2016-Apr-19 12:33N 48°36' W 123°14'1313.4
2016-Apr-19 11:34N 48°47' W 123°02'1515.1
2016-Apr-19 10:33N 48°59' W 123°16'1414.3
2016-Apr-19 09:33N 49°13' W 123°21'1111.2
2016-Apr-19 08:33N 49°18' W 123°06'3 2.5
2016-Apr-19 07:31N 49°18' W 123°02'0 0.0
2016-Apr-19 06:31N 49°18' W 123°02'0 0.0
2016-Apr-19 05:31N 49°18' W 123°02'0 0.0
2016-Apr-19 04:31N 49°18' W 123°02'0 0.0
2016-Apr-19 03:31N 49°18' W 123°02'0 0.0
2016-Apr-19 02:31N 49°18' W 123°02'0 0.0
2016-Apr-19 01:31N 49°18' W 123°02'0 0.0
2016-Apr-19 00:31N 49°18' W 123°02'0 0.0
2016-Apr-18 23:31N 49°18' W 123°02'0 0.0
2016-Apr-18 22:31N 49°18' W 123°02'0 0.0
2016-Apr-18 21:31N 49°18' W 123°02'0 0.0
2016-Apr-18 20:31N 49°18' W 123°02'0 0.0
2016-Apr-18 19:31N 49°18' W 123°02'0 0.0
2016-Apr-18 18:31N 49°18' W 123°02'  
Track history (hours):
 
Tides and Currents Weather Stations Pressure Air Temp Water Temp Dewpoint Dewpoint Depression Visibility Wind Speed Wind Dir Waves Ship Positions

Westwood Rainier

Last reported at 2016-Apr-28 18:00 UTC. Time now 2016-Apr-29 19:46 UTC.
Position N 51°06' W 134°06'.

Type: Cargo ship. MMSI: 311348993.

Wind from 270 at 30 knots

Waves 3.0 meters (10 feet), 8 second period

Barometer 1013.6 mb
Air temperature 10.0 ° C
Visibility: greater than 10.8 NM
Dewpoint 5.7 ° C
Water temperature 8.0 ° C

Date/timePositionNaut miles runAvg speedWind from/ knotsBaromVisibWave heightAir tempDewpointWater temp
2016-Apr-28 18:00N 51°06' W 134°06'31512.9 270 / 301013.610.8 3.010.0 5.7 8.0
2016-Apr-27 17:32N 48°54' W 126°42'1414.7
2016-Apr-27 16:34N 48°47' W 126°23'1514.8
2016-Apr-27 15:34N 48°39' W 126°03'1515.2
2016-Apr-27 14:33N 48°32' W 125°43'1514.6
2016-Apr-27 13:33N 48°31' W 125°22'4714.8
2016-Apr-27 10:22N 48°22' W 124°12'1215.3
2016-Apr-27 09:33N 48°17' W 123°55'1615.8
2016-Apr-27 08:33N 48°15' W 123°31'1211.8
2016-Apr-27 07:33N 48°23' W 123°18'1313.3
2016-Apr-27 06:33N 48°36' W 123°14'1313.3
2016-Apr-27 05:34N 48°47' W 123°02'1413.9
2016-Apr-27 04:33N 48°58' W 123°15'1312.8
2016-Apr-27 03:34N 49°10' W 123°23'1312.5
2016-Apr-27 02:33N 49°19' W 123°10'3 3.2
2016-Apr-27 01:32N 49°17' W 123°06'0 0.0
2016-Apr-27 00:32N 49°17' W 123°06'0 0.0
2016-Apr-26 23:32N 49°17' W 123°06'0 0.0
2016-Apr-26 22:32N 49°17' W 123°06'0 0.0
2016-Apr-26 21:32N 49°17' W 123°06'0 0.0
2016-Apr-26 20:32N 49°17' W 123°06'0 0.0
2016-Apr-26 19:32N 49°17' W 123°06'0 0.0
2016-Apr-26 18:29N 49°17' W 123°06'0 0.0
2016-Apr-26 17:32N 49°17' W 123°06'0 0.0
2016-Apr-26 16:32N 49°17' W 123°06'0 0.0
2016-Apr-26 15:32N 49°17' W 123°06'0 0.0
2016-Apr-26 14:32N 49°17' W 123°06'0 0.0
2016-Apr-26 13:32N 49°17' W 123°06'0 0.0
2016-Apr-26 12:32N 49°17' W 123°06'0 0.0
2016-Apr-26 11:32N 49°17' W 123°06'0 0.0
2016-Apr-26 10:32N 49°17' W 123°06'0 0.0
2016-Apr-26 09:32N 49°17' W 123°06'0 0.0
2016-Apr-26 08:32N 49°17' W 123°06'0 0.0
2016-Apr-26 07:32N 49°17' W 123°06'0 0.0
2016-Apr-26 06:32N 49°17' W 123°06'3 2.8
2016-Apr-26 05:33N 49°19' W 123°09'1111.5
2016-Apr-26 04:33N 49°10' W 123°20'1514.6
2016-Apr-26 03:33N 48°57' W 123°10'1212.5
2016-Apr-26 02:33N 48°45' W 123°05'1313.3
2016-Apr-26 01:33N 48°32' W 123°11'1313.5
2016-Apr-26 00:33N 48°21' W 123°23'1412.6
2016-Apr-25 23:25N 48°13' W 123°42'91 9.2
2016-Apr-25 13:29N 47°02' W 125°05'1213.2
2016-Apr-25 12:34N 46°50' W 125°02'1312.7
2016-Apr-25 11:33N 46°41' W 124°50'1313.1
2016-Apr-25 10:34N 46°31' W 124°36'1413.8
2016-Apr-25 09:34N 46°21' W 124°23'1212.2
2016-Apr-25 08:34N 46°13' W 124°09'10 9.7
2016-Apr-25 07:34N 46°12' W 123°55'1010.2
2016-Apr-25 06:34N 46°15' W 123°41'1111.2
2016-Apr-25 05:33N 46°12' W 123°26'1111.3
2016-Apr-25 04:33N 46°11' W 123°09'1313.3
2016-Apr-25 03:33N 46°04' W 122°53'1312.8
2016-Apr-25 02:33N 45°52' W 122°47'1313.0
2016-Apr-25 01:34N 45°39' W 122°46'1 1.0
2016-Apr-25 00:32N 45°38' W 122°45'0 0.0
2016-Apr-24 23:32N 45°38' W 122°45'0 0.0
2016-Apr-24 22:32N 45°38' W 122°45'0 0.0
2016-Apr-24 21:32N 45°38' W 122°45'0 0.0
2016-Apr-24 20:32N 45°38' W 122°45'0 0.0
2016-Apr-24 19:32N 45°38' W 122°45'0 0.0
2016-Apr-24 18:33N 45°38' W 122°45'0 0.0
2016-Apr-24 17:32N 45°38' W 122°45'0 0.0
2016-Apr-24 16:32N 45°38' W 122°45'0 0.0
2016-Apr-24 15:20N 45°38' W 122°45'0 0.0
2016-Apr-24 14:32N 45°38' W 122°45'0 0.0
2016-Apr-24 13:32N 45°38' W 122°45'6 5.9
2016-Apr-24 12:33N 45°44' W 122°46'1111.4
2016-Apr-24 11:33N 45°55' W 122°48'1111.0
2016-Apr-24 10:33N 46°05' W 122°55'4 3.5
2016-Apr-24 09:32N 46°08' W 122°59'0 0.0
2016-Apr-24 08:32N 46°08' W 122°59'0 0.0
2016-Apr-24 07:29N 46°08' W 122°59'0 0.0
2016-Apr-24 06:32N 46°08' W 122°59'0 0.0
2016-Apr-24 05:32N 46°08' W 122°59'0 0.0
2016-Apr-24 04:32N 46°08' W 122°59'0 0.0
2016-Apr-24 03:32N 46°08' W 122°59'0 0.0
2016-Apr-24 02:32N 46°08' W 122°59'0 0.0
2016-Apr-24 01:32N 46°08' W 122°59'0 0.0
2016-Apr-24 00:32N 46°08' W 122°59'0 0.0
2016-Apr-23 23:29N 46°08' W 122°59'0 0.0
2016-Apr-23 22:32N 46°08' W 122°59'0 0.0
2016-Apr-23 21:32N 46°08' W 122°59'0 0.0
2016-Apr-23 20:32N 46°08' W 122°59'0 0.0
2016-Apr-23 19:32N 46°08' W 122°59'0 0.0
2016-Apr-23 18:26N 46°08' W 122°59'0 0.0
2016-Apr-23 17:29N 46°08' W 122°59'0 0.0
2016-Apr-23 16:29N 46°08' W 122°59'0 0.0
2016-Apr-23 15:32N 46°08' W 122°59'0 0.0
2016-Apr-23 14:32N 46°08' W 122°59'0 0.0
2016-Apr-23 13:32N 46°08' W 122°59'0 0.0
2016-Apr-23 12:26N 46°08' W 122°59'0 0.0
2016-Apr-23 11:32N 46°08' W 122°59'0 0.0
2016-Apr-23 10:32N 46°08' W 122°59'0 0.0
2016-Apr-23 09:32N 46°08' W 122°59'0 0.0
2016-Apr-23 08:32N 46°08' W 122°59'0 0.0
2016-Apr-23 07:32N 46°08' W 122°59'0 0.0
2016-Apr-23 06:29N 46°08' W 122°59'0 0.0
2016-Apr-23 05:32N 46°08' W 122°59'0 0.0
2016-Apr-23 04:32N 46°08' W 122°59'0 0.0
2016-Apr-23 03:26N 46°08' W 122°59'0 0.0
2016-Apr-23 02:33N 46°08' W 122°59'0 0.0
2016-Apr-23 01:33N 46°08' W 122°59'0 0.0
2016-Apr-23 00:33N 46°08' W 122°59'0 0.0
2016-Apr-22 23:33N 46°08' W 122°59'0 0.0
2016-Apr-22 22:33N 46°08' W 122°59'0 0.0
2016-Apr-22 21:33N 46°08' W 122°59'0 0.0
2016-Apr-22 20:33N 46°08' W 122°59'0 0.0
2016-Apr-22 19:33N 46°08' W 122°59'0 0.0
2016-Apr-22 18:33N 46°08' W 122°59'0 0.0
2016-Apr-22 17:33N 46°08' W 122°59'0 0.0
2016-Apr-22 16:30N 46°08' W 122°59'0 0.0
2016-Apr-22 15:33N 46°08' W 122°59'0 0.0
2016-Apr-22 14:33N 46°08' W 122°59'0 0.0
2016-Apr-22 13:33N 46°08' W 122°59'0 0.0
2016-Apr-22 12:27N 46°08' W 122°59'0 0.0
2016-Apr-22 11:33N 46°08' W 122°59'0 0.0
2016-Apr-22 10:33N 46°08' W 122°59'0 0.0
2016-Apr-22 09:33N 46°08' W 122°59'0 0.0
2016-Apr-22 08:33N 46°08' W 122°59'0 0.0
2016-Apr-22 07:33N 46°08' W 122°59'0 0.0
2016-Apr-22 06:33N 46°08' W 122°59'0 0.0
2016-Apr-22 05:33N 46°08' W 122°59'0 0.0
2016-Apr-22 04:33N 46°08' W 122°59'0 0.0
2016-Apr-22 03:33N 46°08' W 122°59'0 0.0
2016-Apr-22 02:33N 46°08' W 122°59'0 0.0
2016-Apr-22 01:33N 46°08' W 122°59'0 0.0
2016-Apr-22 00:33N 46°08' W 122°59'0 0.0
2016-Apr-21 23:33N 46°08' W 122°59'0 0.0
2016-Apr-21 22:33N 46°08' W 122°59'0 0.0
2016-Apr-21 21:33N 46°08' W 122°59'0 0.0
2016-Apr-21 20:33N 46°08' W 122°59'0 0.0
2016-Apr-21 19:27N 46°08' W 122°59'0 0.0
2016-Apr-21 18:33N 46°08' W 122°59'0 0.0
2016-Apr-21 17:33N 46°08' W 122°59'0 0.0
2016-Apr-21 16:30N 46°08' W 122°59'0 0.0
2016-Apr-21 15:33N 46°08' W 122°59'0 0.0
2016-Apr-21 14:33N 46°08' W 122°59'0 0.0
2016-Apr-21 13:33N 46°08' W 122°59'0 0.0
2016-Apr-21 12:33N 46°08' W 122°59'0 0.0
2016-Apr-21 11:33N 46°08' W 122°59'0 0.0
2016-Apr-21 10:33N 46°08' W 122°59'0 0.0
2016-Apr-21 09:33N 46°08' W 122°59'0 0.0
2016-Apr-21 08:33N 46°08' W 122°59'0 0.0
2016-Apr-21 07:33N 46°08' W 122°59'0 0.0
2016-Apr-21 06:33N 46°08' W 122°59'0 0.0
2016-Apr-21 05:33N 46°08' W 122°59'0 0.0
2016-Apr-21 04:33N 46°08' W 122°59'0 0.0
2016-Apr-21 03:33N 46°08' W 122°59'0 0.0
2016-Apr-21 02:18N 46°08' W 122°59'0 0.0
2016-Apr-21 01:33N 46°08' W 122°59'0 0.0
2016-Apr-21 00:33N 46°08' W 122°59'0 0.0
2016-Apr-20 23:30N 46°08' W 122°59'0 0.0
2016-Apr-20 22:30N 46°08' W 122°59'0 0.0
2016-Apr-20 21:33N 46°08' W 122°59'0 0.0
2016-Apr-20 20:21N 46°08' W 122°59'0 0.0
2016-Apr-20 19:24N 46°08' W 122°59'0 0.0
2016-Apr-20 18:28N 46°08' W 122°59'0 0.0
2016-Apr-20 17:28N 46°08' W 122°59'0 0.0
2016-Apr-20 16:31N 46°08' W 122°59'0 0.0
2016-Apr-20 15:31N 46°08' W 122°59'0 0.0
2016-Apr-20 14:28N 46°08' W 122°59'0 0.0
2016-Apr-20 13:25N 46°08' W 122°59'0 0.0
2016-Apr-20 12:31N 46°08' W 122°59'0 0.0
2016-Apr-20 11:31N 46°08' W 122°59'1 1.4
2016-Apr-20 10:33N 46°08' W 123°01'1110.6
2016-Apr-20 09:33N 46°09' W 123°16'1010.1
2016-Apr-20 08:34N 46°16' W 123°27'1413.6
2016-Apr-20 07:34N 46°13' W 123°46'1212.0
2016-Apr-20 06:34N 46°15' W 124°03'8 7.8
2016-Apr-20 05:33N 46°12' W 124°14'1111.3
2016-Apr-20 04:33N 46°22' W 124°23'1413.8
2016-Apr-20 03:34N 46°31' W 124°37'1514.8
2016-Apr-20 02:33N 46°43' W 124°51'1414.2
2016-Apr-20 01:34N 46°55' W 125°02'1414.2
2016-Apr-20 00:33N 47°09' W 125°05'1111.2
2016-Apr-19 23:34N 47°20' W 125°08'1414.3
2016-Apr-19 22:34N 47°34' W 125°12'1514.8
2016-Apr-19 21:34N 47°48' W 125°16'1414.2
2016-Apr-19 20:33N 48°03' W 125°15'1414.4
2016-Apr-19 19:34N 48°17' W 125°12'1413.5
2016-Apr-19 18:32N 48°29' W 125°03'4414.9
2016-Apr-19 15:33N 48°18' W 123°58'1716.6
2016-Apr-19 14:33N 48°15' W 123°34'1312.5
2016-Apr-19 13:33N 48°23' W 123°19'1413.9
2016-Apr-19 12:33N 48°36' W 123°14'1313.4
2016-Apr-19 11:34N 48°47' W 123°02'1515.1
2016-Apr-19 10:33N 48°59' W 123°16'1414.3
2016-Apr-19 09:33N 49°13' W 123°21'1111.2
2016-Apr-19 08:33N 49°18' W 123°06'3 2.5
2016-Apr-19 07:31N 49°18' W 123°02'0 0.0
2016-Apr-19 06:31N 49°18' W 123°02'0 0.0
2016-Apr-19 05:31N 49°18' W 123°02'0 0.0
2016-Apr-19 04:31N 49°18' W 123°02'0 0.0
2016-Apr-19 03:31N 49°18' W 123°02'0 0.0
2016-Apr-19 02:31N 49°18' W 123°02'0 0.0
2016-Apr-19 01:31N 49°18' W 123°02'0 0.0
2016-Apr-19 00:31N 49°18' W 123°02'0 0.0
2016-Apr-18 23:31N 49°18' W 123°02'0 0.0
2016-Apr-18 22:31N 49°18' W 123°02'0 0.0
2016-Apr-18 21:31N 49°18' W 123°02'0 0.0
2016-Apr-18 20:31N 49°18' W 123°02'0 0.0
2016-Apr-18 19:31N 49°18' W 123°02'0 0.0
2016-Apr-18 18:31N 49°18' W 123°02'  

Dump ship's entire track history